sensor_id;sensor_type;location;lat;lon;timestamp;temperature;humidity
18611;DHT22;9435;52.122;5.502;2023-01-19T00:01:47;2.50;99.90
18611;DHT22;9435;52.122;5.502;2023-01-19T00:04:15;2.50;99.90
18611;DHT22;9435;52.122;5.502;2023-01-19T00:06:43;2.60;99.90
18611;DHT22;9435;52.122;5.502;2023-01-19T00:09:10;2.50;99.90
18611;DHT22;9435;52.122;5.502;2023-01-19T00:11:37;2.60;99.90
18611;DHT22;9435;52.122;5.502;2023-01-19T00:14:04;2.60;99.90
18611;DHT22;9435;52.122;5.502;2023-01-19T00:16:31;2.60;99.90
18611;DHT22;9435;52.122;5.502;2023-01-19T00:18:59;2.60;99.90
18611;DHT22;9435;52.122;5.502;2023-01-19T00:21:26;2.60;99.90
18611;DHT22;9435;52.122;5.502;2023-01-19T00:23:54;2.60;99.90
18611;DHT22;9435;52.122;5.502;2023-01-19T00:26:21;2.70;99.90
18611;DHT22;9435;52.122;5.502;2023-01-19T00:28:48;2.70;99.90
18611;DHT22;9435;52.122;5.502;2023-01-19T00:31:15;2.70;99.90
18611;DHT22;9435;52.122;5.502;2023-01-19T00:33:45;2.70;99.90
18611;DHT22;9435;52.122;5.502;2023-01-19T00:36:13;2.70;99.90
18611;DHT22;9435;52.122;5.502;2023-01-19T00:38:41;2.70;99.90
18611;DHT22;9435;52.122;5.502;2023-01-19T00:41:09;2.70;99.90
18611;DHT22;9435;52.122;5.502;2023-01-19T00:43:36;2.70;99.90
18611;DHT22;9435;52.122;5.502;2023-01-19T00:46:02;2.60;99.90
18611;DHT22;9435;52.122;5.502;2023-01-19T00:48:29;2.50;99.90
18611;DHT22;9435;52.122;5.502;2023-01-19T00:50:56;2.40;99.90
18611;DHT22;9435;52.122;5.502;2023-01-19T00:53:24;2.20;99.90
18611;DHT22;9435;52.122;5.502;2023-01-19T00:55:52;2.20;99.90
18611;DHT22;9435;52.122;5.502;2023-01-19T00:58:21;2.20;99.90
18611;DHT22;9435;52.122;5.502;2023-01-19T01:00:48;2.20;99.90
18611;DHT22;9435;52.122;5.502;2023-01-19T01:03:15;2.20;99.90
18611;DHT22;9435;52.122;5.502;2023-01-19T01:05:42;2.20;99.90
18611;DHT22;9435;52.122;5.502;2023-01-19T01:08:09;2.20;99.90
18611;DHT22;9435;52.122;5.502;2023-01-19T01:10:37;2.20;99.90
18611;DHT22;9435;52.122;5.502;2023-01-19T01:13:04;2.20;99.90
18611;DHT22;9435;52.122;5.502;2023-01-19T01:15:32;2.30;99.90
18611;DHT22;9435;52.122;5.502;2023-01-19T01:17:59;2.40;99.90
18611;DHT22;9435;52.122;5.502;2023-01-19T01:20:27;2.40;99.90
18611;DHT22;9435;52.122;5.502;2023-01-19T01:22:55;2.40;99.90
18611;DHT22;9435;52.122;5.502;2023-01-19T01:25:25;2.40;99.90
18611;DHT22;9435;52.122;5.502;2023-01-19T01:27:53;2.50;99.90
18611;DHT22;9435;52.122;5.502;2023-01-19T01:30:20;2.40;99.90
18611;DHT22;9435;52.122;5.502;2023-01-19T01:32:49;2.40;99.90
18611;DHT22;9435;52.122;5.502;2023-01-19T01:35:16;2.30;99.90
18611;DHT22;9435;52.122;5.502;2023-01-19T01:37:44;2.20;99.90
18611;DHT22;9435;52.122;5.502;2023-01-19T01:40:12;2.10;99.90
18611;DHT22;9435;52.122;5.502;2023-01-19T01:42:40;2.00;99.90
18611;DHT22;9435;52.122;5.502;2023-01-19T01:45:25;2.00;99.90
18611;DHT22;9435;52.122;5.502;2023-01-19T01:47:57;2.00;99.90
18611;DHT22;9435;52.122;5.502;2023-01-19T01:50:28;1.90;99.90
18611;DHT22;9435;52.122;5.502;2023-01-19T01:52:59;2.00;99.90
18611;DHT22;9435;52.122;5.502;2023-01-19T01:55:28;1.90;99.90
18611;DHT22;9435;52.122;5.502;2023-01-19T01:57:59;2.00;99.90
18611;DHT22;9435;52.122;5.502;2023-01-19T02:00:27;2.10;99.90
18611;DHT22;9435;52.122;5.502;2023-01-19T02:03:16;2.10;99.90
18611;DHT22;9435;52.122;5.502;2023-01-19T02:05:42;2.20;99.90
18611;DHT22;9435;52.122;5.502;2023-01-19T02:08:13;2.20;99.90
18611;DHT22;9435;52.122;5.502;2023-01-19T02:10:59;2.20;99.90
18611;DHT22;9435;52.122;5.502;2023-01-19T02:13:44;2.20;99.90
18611;DHT22;9435;52.122;5.502;2023-01-19T02:16:13;2.20;99.90
18611;DHT22;9435;52.122;5.502;2023-01-19T02:18:43;2.20;99.90
18611;DHT22;9435;52.122;5.502;2023-01-19T02:21:15;2.20;99.90
18611;DHT22;9435;52.122;5.502;2023-01-19T02:23:48;2.30;99.90
18611;DHT22;9435;52.122;5.502;2023-01-19T02:26:17;2.30;99.90
18611;DHT22;9435;52.122;5.502;2023-01-19T02:28:47;2.30;99.90
18611;DHT22;9435;52.122;5.502;2023-01-19T02:31:16;2.40;99.90
18611;DHT22;9435;52.122;5.502;2023-01-19T02:33:43;2.40;99.90
18611;DHT22;9435;52.122;5.502;2023-01-19T02:36:12;2.50;99.90
18611;DHT22;9435;52.122;5.502;2023-01-19T02:38:43;2.50;99.90
18611;DHT22;9435;52.122;5.502;2023-01-19T02:41:14;2.50;99.90
18611;DHT22;9435;52.122;5.502;2023-01-19T02:43:43;2.60;99.90
18611;DHT22;9435;52.122;5.502;2023-01-19T02:46:12;2.70;99.90
18611;DHT22;9435;52.122;5.502;2023-01-19T02:48:40;2.70;99.90
18611;DHT22;9435;52.122;5.502;2023-01-19T02:51:11;2.80;99.90
18611;DHT22;9435;52.122;5.502;2023-01-19T02:53:58;2.80;99.90
18611;DHT22;9435;52.122;5.502;2023-01-19T02:56:42;2.90;99.90
18611;DHT22;9435;52.122;5.502;2023-01-19T02:59:19;2.90;99.90
18611;DHT22;9435;52.122;5.502;2023-01-19T03:02:00;3.00;99.90
18611;DHT22;9435;52.122;5.502;2023-01-19T03:04:39;3.10;99.90
18611;DHT22;9435;52.122;5.502;2023-01-19T03:07:13;3.00;99.90
18611;DHT22;9435;52.122;5.502;2023-01-19T03:09:45;3.10;99.90
18611;DHT22;9435;52.122;5.502;2023-01-19T03:12:23;3.10;99.90
18611;DHT22;9435;52.122;5.502;2023-01-19T03:14:56;3.10;99.90
18611;DHT22;9435;52.122;5.502;2023-01-19T03:17:26;3.10;99.90
18611;DHT22;9435;52.122;5.502;2023-01-19T03:19:56;3.20;99.90
18611;DHT22;9435;52.122;5.502;2023-01-19T03:22:27;3.20;99.90
18611;DHT22;9435;52.122;5.502;2023-01-19T03:24:58;3.10;99.90
18611;DHT22;9435;52.122;5.502;2023-01-19T03:27:29;3.10;99.90
18611;DHT22;9435;52.122;5.502;2023-01-19T03:30:00;3.20;99.90
18611;DHT22;9435;52.122;5.502;2023-01-19T03:32:32;3.10;99.90
18611;DHT22;9435;52.122;5.502;2023-01-19T03:35:03;3.10;99.90
18611;DHT22;9435;52.122;5.502;2023-01-19T03:37:33;3.10;99.90
18611;DHT22;9435;52.122;5.502;2023-01-19T03:40:02;3.10;99.90
18611;DHT22;9435;52.122;5.502;2023-01-19T03:42:31;3.10;99.90
18611;DHT22;9435;52.122;5.502;2023-01-19T03:44:59;3.20;99.90
18611;DHT22;9435;52.122;5.502;2023-01-19T03:47:27;3.20;99.90
18611;DHT22;9435;52.122;5.502;2023-01-19T03:49:55;3.10;99.90
18611;DHT22;9435;52.122;5.502;2023-01-19T03:52:27;3.10;99.90
18611;DHT22;9435;52.122;5.502;2023-01-19T03:54:54;3.10;99.90
18611;DHT22;9435;52.122;5.502;2023-01-19T03:57:22;3.20;99.90
18611;DHT22;9435;52.122;5.502;2023-01-19T03:59:50;3.10;99.90
18611;DHT22;9435;52.122;5.502;2023-01-19T04:02:18;3.10;99.90
18611;DHT22;9435;52.122;5.502;2023-01-19T04:04:45;3.10;99.90
18611;DHT22;9435;52.122;5.502;2023-01-19T04:07:12;3.10;99.90
18611;DHT22;9435;52.122;5.502;2023-01-19T04:09:39;3.10;99.90
18611;DHT22;9435;52.122;5.502;2023-01-19T04:12:07;3.00;99.90
18611;DHT22;9435;52.122;5.502;2023-01-19T04:14:34;3.00;99.90
18611;DHT22;9435;52.122;5.502;2023-01-19T04:17:03;2.90;99.90
18611;DHT22;9435;52.122;5.502;2023-01-19T04:19:30;2.90;99.90
18611;DHT22;9435;52.122;5.502;2023-01-19T04:21:57;2.80;99.90
18611;DHT22;9435;52.122;5.502;2023-01-19T04:24:24;2.80;99.90
18611;DHT22;9435;52.122;5.502;2023-01-19T04:26:52;2.70;99.90
18611;DHT22;9435;52.122;5.502;2023-01-19T04:29:19;2.60;99.90
18611;DHT22;9435;52.122;5.502;2023-01-19T04:31:46;2.60;99.90
18611;DHT22;9435;52.122;5.502;2023-01-19T04:34:15;2.50;99.90
18611;DHT22;9435;52.122;5.502;2023-01-19T04:36:42;2.50;99.90
18611;DHT22;9435;52.122;5.502;2023-01-19T04:39:10;2.50;99.90
18611;DHT22;9435;52.122;5.502;2023-01-19T04:41:37;2.40;99.90
18611;DHT22;9435;52.122;5.502;2023-01-19T04:44:04;2.40;99.90
18611;DHT22;9435;52.122;5.502;2023-01-19T04:46:31;2.30;99.90
18611;DHT22;9435;52.122;5.502;2023-01-19T04:48:58;2.30;99.90
18611;DHT22;9435;52.122;5.502;2023-01-19T04:51:27;2.30;99.90
18611;DHT22;9435;52.122;5.502;2023-01-19T04:53:54;2.30;99.90
18611;DHT22;9435;52.122;5.502;2023-01-19T04:56:22;2.30;99.90
18611;DHT22;9435;52.122;5.502;2023-01-19T04:58:49;2.30;99.90
18611;DHT22;9435;52.122;5.502;2023-01-19T05:01:16;2.30;99.90
18611;DHT22;9435;52.122;5.502;2023-01-19T05:03:43;2.30;99.90
18611;DHT22;9435;52.122;5.502;2023-01-19T05:06:10;2.30;99.90
18611;DHT22;9435;52.122;5.502;2023-01-19T05:08:39;2.30;99.90
18611;DHT22;9435;52.122;5.502;2023-01-19T05:11:06;2.20;99.90
18611;DHT22;9435;52.122;5.502;2023-01-19T05:13:33;2.20;99.90
18611;DHT22;9435;52.122;5.502;2023-01-19T05:16:00;2.20;99.90
18611;DHT22;9435;52.122;5.502;2023-01-19T05:18:27;2.30;99.90
18611;DHT22;9435;52.122;5.502;2023-01-19T05:21:01;2.30;99.90
18611;DHT22;9435;52.122;5.502;2023-01-19T05:23:28;2.30;99.90
18611;DHT22;9435;52.122;5.502;2023-01-19T05:25:58;2.30;99.90
18611;DHT22;9435;52.122;5.502;2023-01-19T05:28:26;2.30;99.90
18611;DHT22;9435;52.122;5.502;2023-01-19T05:30:53;2.40;99.90
18611;DHT22;9435;52.122;5.502;2023-01-19T05:33:21;2.40;99.90
18611;DHT22;9435;52.122;5.502;2023-01-19T05:35:48;2.40;99.90
18611;DHT22;9435;52.122;5.502;2023-01-19T05:38:16;2.40;99.90
18611;DHT22;9435;52.122;5.502;2023-01-19T05:40:43;2.50;99.90
18611;DHT22;9435;52.122;5.502;2023-01-19T05:43:12;2.50;99.90
18611;DHT22;9435;52.122;5.502;2023-01-19T05:45:39;2.50;99.90
18611;DHT22;9435;52.122;5.502;2023-01-19T05:48:07;2.50;99.90
18611;DHT22;9435;52.122;5.502;2023-01-19T05:50:34;2.60;99.90
18611;DHT22;9435;52.122;5.502;2023-01-19T05:53:01;2.60;99.90
18611;DHT22;9435;52.122;5.502;2023-01-19T05:55:28;2.60;99.90
18611;DHT22;9435;52.122;5.502;2023-01-19T05:57:55;2.60;99.90
18611;DHT22;9435;52.122;5.502;2023-01-19T06:00:24;2.70;99.90
18611;DHT22;9435;52.122;5.502;2023-01-19T06:02:52;2.70;99.90
18611;DHT22;9435;52.122;5.502;2023-01-19T06:05:19;2.80;99.90
18611;DHT22;9435;52.122;5.502;2023-01-19T06:07:46;2.70;99.90
18611;DHT22;9435;52.122;5.502;2023-01-19T06:10:13;2.80;99.90
18611;DHT22;9435;52.122;5.502;2023-01-19T06:12:40;2.80;99.90
18611;DHT22;9435;52.122;5.502;2023-01-19T06:15:07;2.80;99.90
18611;DHT22;9435;52.122;5.502;2023-01-19T06:17:36;2.90;99.90
18611;DHT22;9435;52.122;5.502;2023-01-19T06:20:04;2.80;99.90
18611;DHT22;9435;52.122;5.502;2023-01-19T06:22:31;2.80;99.90
18611;DHT22;9435;52.122;5.502;2023-01-19T06:24:58;2.80;99.90
18611;DHT22;9435;52.122;5.502;2023-01-19T06:27:25;2.70;99.90
18611;DHT22;9435;52.122;5.502;2023-01-19T06:29:52;2.70;99.90
18611;DHT22;9435;52.122;5.502;2023-01-19T06:32:20;2.70;99.90
18611;DHT22;9435;52.122;5.502;2023-01-19T06:34:48;2.60;99.90
18611;DHT22;9435;52.122;5.502;2023-01-19T06:37:15;2.70;99.90
18611;DHT22;9435;52.122;5.502;2023-01-19T06:39:42;2.70;99.90
18611;DHT22;9435;52.122;5.502;2023-01-19T06:42:10;2.80;99.90
18611;DHT22;9435;52.122;5.502;2023-01-19T06:44:37;2.80;99.90
18611;DHT22;9435;52.122;5.502;2023-01-19T06:47:07;2.90;99.90
18611;DHT22;9435;52.122;5.502;2023-01-19T06:49:34;2.90;99.90
18611;DHT22;9435;52.122;5.502;2023-01-19T06:52:03;3.00;99.90
18611;DHT22;9435;52.122;5.502;2023-01-19T06:54:30;3.00;99.90
18611;DHT22;9435;52.122;5.502;2023-01-19T06:56:57;3.00;99.90
18611;DHT22;9435;52.122;5.502;2023-01-19T06:59:24;3.00;99.90
18611;DHT22;9435;52.122;5.502;2023-01-19T07:01:51;2.90;99.90
18611;DHT22;9435;52.122;5.502;2023-01-19T07:04:20;2.90;99.90
18611;DHT22;9435;52.122;5.502;2023-01-19T07:06:47;2.90;99.90
18611;DHT22;9435;52.122;5.502;2023-01-19T07:09:16;2.90;99.90
18611;DHT22;9435;52.122;5.502;2023-01-19T07:11:45;2.90;99.90
18611;DHT22;9435;52.122;5.502;2023-01-19T07:14:12;2.90;99.90
18611;DHT22;9435;52.122;5.502;2023-01-19T07:16:40;2.90;99.90
18611;DHT22;9435;52.122;5.502;2023-01-19T07:19:07;2.80;99.90
18611;DHT22;9435;52.122;5.502;2023-01-19T07:21:35;2.80;99.90
18611;DHT22;9435;52.122;5.502;2023-01-19T07:24:02;2.70;99.90
18611;DHT22;9435;52.122;5.502;2023-01-19T07:26:31;2.70;99.90
18611;DHT22;9435;52.122;5.502;2023-01-19T07:28:58;2.70;99.90
18611;DHT22;9435;52.122;5.502;2023-01-19T07:31:25;2.60;99.90
18611;DHT22;9435;52.122;5.502;2023-01-19T07:33:52;2.60;99.90
18611;DHT22;9435;52.122;5.502;2023-01-19T07:36:19;2.50;99.90
18611;DHT22;9435;52.122;5.502;2023-01-19T07:38:46;2.50;99.90
18611;DHT22;9435;52.122;5.502;2023-01-19T07:41:13;2.50;99.90
18611;DHT22;9435;52.122;5.502;2023-01-19T07:43:41;2.50;99.90
18611;DHT22;9435;52.122;5.502;2023-01-19T07:46:09;2.50;99.90
18611;DHT22;9435;52.122;5.502;2023-01-19T07:48:36;2.50;99.90
18611;DHT22;9435;52.122;5.502;2023-01-19T07:51:04;2.50;99.90
18611;DHT22;9435;52.122;5.502;2023-01-19T07:53:33;2.60;99.90
18611;DHT22;9435;52.122;5.502;2023-01-19T07:56:00;2.50;99.90
18611;DHT22;9435;52.122;5.502;2023-01-19T07:58:28;2.50;99.90
18611;DHT22;9435;52.122;5.502;2023-01-19T08:00:56;2.50;99.90
18611;DHT22;9435;52.122;5.502;2023-01-19T08:03:23;2.50;99.90
18611;DHT22;9435;52.122;5.502;2023-01-19T08:05:51;2.50;99.90
18611;DHT22;9435;52.122;5.502;2023-01-19T08:08:18;2.50;99.90
18611;DHT22;9435;52.122;5.502;2023-01-19T08:10:48;2.50;99.90
18611;DHT22;9435;52.122;5.502;2023-01-19T08:13:15;2.50;99.90
18611;DHT22;9435;52.122;5.502;2023-01-19T08:15:43;2.40;99.90
18611;DHT22;9435;52.122;5.502;2023-01-19T08:18:11;2.40;99.90
18611;DHT22;9435;52.122;5.502;2023-01-19T08:20:40;2.40;99.90
18611;DHT22;9435;52.122;5.502;2023-01-19T08:23:07;2.30;99.90
18611;DHT22;9435;52.122;5.502;2023-01-19T08:25:35;2.30;99.90
18611;DHT22;9435;52.122;5.502;2023-01-19T08:28:04;2.30;99.90
18611;DHT22;9435;52.122;5.502;2023-01-19T08:30:31;2.30;99.90
18611;DHT22;9435;52.122;5.502;2023-01-19T08:32:59;2.30;99.90
18611;DHT22;9435;52.122;5.502;2023-01-19T08:35:34;2.20;99.90
18611;DHT22;9435;52.122;5.502;2023-01-19T08:38:02;2.20;99.90
18611;DHT22;9435;52.122;5.502;2023-01-19T08:40:30;2.20;99.90
18611;DHT22;9435;52.122;5.502;2023-01-19T08:42:58;2.20;99.90
18611;DHT22;9435;52.122;5.502;2023-01-19T08:45:28;2.20;99.90
18611;DHT22;9435;52.122;5.502;2023-01-19T08:47:55;2.20;99.90
18611;DHT22;9435;52.122;5.502;2023-01-19T08:50:23;2.20;99.90
18611;DHT22;9435;52.122;5.502;2023-01-19T08:52:54;2.30;99.90
18611;DHT22;9435;52.122;5.502;2023-01-19T08:55:21;2.30;99.90
18611;DHT22;9435;52.122;5.502;2023-01-19T08:57:50;2.30;99.90
18611;DHT22;9435;52.122;5.502;2023-01-19T09:00:18;2.40;99.90
18611;DHT22;9435;52.122;5.502;2023-01-19T09:02:45;2.40;99.90
18611;DHT22;9435;52.122;5.502;2023-01-19T09:05:13;2.50;99.90
18611;DHT22;9435;52.122;5.502;2023-01-19T09:07:42;2.60;99.90
18611;DHT22;9435;52.122;5.502;2023-01-19T09:10:12;2.70;99.90
18611;DHT22;9435;52.122;5.502;2023-01-19T09:12:41;2.80;99.90
18611;DHT22;9435;52.122;5.502;2023-01-19T09:15:09;2.80;99.90
18611;DHT22;9435;52.122;5.502;2023-01-19T09:17:39;2.80;99.90
18611;DHT22;9435;52.122;5.502;2023-01-19T09:20:07;2.80;99.90
18611;DHT22;9435;52.122;5.502;2023-01-19T09:22:35;2.80;99.90
18611;DHT22;9435;52.122;5.502;2023-01-19T09:25:04;2.90;99.90
18611;DHT22;9435;52.122;5.502;2023-01-19T09:27:34;2.90;99.90
18611;DHT22;9435;52.122;5.502;2023-01-19T09:30:01;2.90;99.90
18611;DHT22;9435;52.122;5.502;2023-01-19T09:32:29;3.00;99.90
18611;DHT22;9435;52.122;5.502;2023-01-19T09:34:56;3.00;99.90
18611;DHT22;9435;52.122;5.502;2023-01-19T09:37:23;3.00;99.90
18611;DHT22;9435;52.122;5.502;2023-01-19T09:39:50;3.00;99.90
18611;DHT22;9435;52.122;5.502;2023-01-19T09:42:21;3.10;99.90
18611;DHT22;9435;52.122;5.502;2023-01-19T09:44:51;3.10;99.90
18611;DHT22;9435;52.122;5.502;2023-01-19T09:47:23;3.10;99.90
18611;DHT22;9435;52.122;5.502;2023-01-19T09:49:54;3.10;99.90
18611;DHT22;9435;52.122;5.502;2023-01-19T09:52:23;3.10;99.90
18611;DHT22;9435;52.122;5.502;2023-01-19T09:54:53;3.20;99.90
18611;DHT22;9435;52.122;5.502;2023-01-19T09:57:21;3.20;99.90
18611;DHT22;9435;52.122;5.502;2023-01-19T09:59:48;3.30;99.90
18611;DHT22;9435;52.122;5.502;2023-01-19T10:02:30;3.20;99.90
18611;DHT22;9435;52.122;5.502;2023-01-19T10:05:00;3.30;99.90
18611;DHT22;9435;52.122;5.502;2023-01-19T10:07:46;3.40;99.90
18611;DHT22;9435;52.122;5.502;2023-01-19T10:10:20;3.50;99.90
18611;DHT22;9435;52.122;5.502;2023-01-19T10:13:00;3.60;99.90
18611;DHT22;9435;52.122;5.502;2023-01-19T10:15:42;3.70;99.90
18611;DHT22;9435;52.122;5.502;2023-01-19T10:18:16;3.70;99.90
18611;DHT22;9435;52.122;5.502;2023-01-19T10:20:48;3.80;99.90
18611;DHT22;9435;52.122;5.502;2023-01-19T10:23:34;3.90;99.90
18611;DHT22;9435;52.122;5.502;2023-01-19T10:26:08;3.90;99.90
18611;DHT22;9435;52.122;5.502;2023-01-19T10:28:35;3.90;99.90
18611;DHT22;9435;52.122;5.502;2023-01-19T10:31:05;4.00;99.90
18611;DHT22;9435;52.122;5.502;2023-01-19T10:33:35;4.00;99.90
18611;DHT22;9435;52.122;5.502;2023-01-19T10:36:05;4.10;99.90
18611;DHT22;9435;52.122;5.502;2023-01-19T10:38:36;4.10;99.90
18611;DHT22;9435;52.122;5.502;2023-01-19T10:41:06;4.20;99.90
18611;DHT22;9435;52.122;5.502;2023-01-19T10:43:39;4.20;99.90
18611;DHT22;9435;52.122;5.502;2023-01-19T10:46:15;4.30;99.90
18611;DHT22;9435;52.122;5.502;2023-01-19T10:48:47;4.30;99.90
18611;DHT22;9435;52.122;5.502;2023-01-19T10:51:15;4.30;99.90
18611;DHT22;9435;52.122;5.502;2023-01-19T10:53:51;4.40;99.90
18611;DHT22;9435;52.122;5.502;2023-01-19T10:56:22;4.40;99.90
18611;DHT22;9435;52.122;5.502;2023-01-19T10:58:49;4.50;99.90
18611;DHT22;9435;52.122;5.502;2023-01-19T11:01:19;4.50;99.90
18611;DHT22;9435;52.122;5.502;2023-01-19T11:03:48;4.60;99.90
18611;DHT22;9435;52.122;5.502;2023-01-19T11:06:24;4.60;99.90
18611;DHT22;9435;52.122;5.502;2023-01-19T11:08:52;4.70;99.90
18611;DHT22;9435;52.122;5.502;2023-01-19T11:11:44;4.70;99.90
18611;DHT22;9435;52.122;5.502;2023-01-19T11:14:13;4.80;99.90
18611;DHT22;9435;52.122;5.502;2023-01-19T11:16:43;4.80;99.90
18611;DHT22;9435;52.122;5.502;2023-01-19T11:19:19;4.90;99.90
18611;DHT22;9435;52.122;5.502;2023-01-19T11:21:46;4.90;99.90
18611;DHT22;9435;52.122;5.502;2023-01-19T11:24:14;5.00;99.90
18611;DHT22;9435;52.122;5.502;2023-01-19T11:26:43;5.00;99.90
18611;DHT22;9435;52.122;5.502;2023-01-19T11:29:16;5.00;99.90
18611;DHT22;9435;52.122;5.502;2023-01-19T11:31:45;5.10;99.90
18611;DHT22;9435;52.122;5.502;2023-01-19T11:34:25;5.10;99.90
18611;DHT22;9435;52.122;5.502;2023-01-19T11:37:00;5.20;99.90
18611;DHT22;9435;52.122;5.502;2023-01-19T11:39:29;5.20;99.90
18611;DHT22;9435;52.122;5.502;2023-01-19T11:41:59;5.20;99.90
18611;DHT22;9435;52.122;5.502;2023-01-19T11:44:29;5.10;99.90
18611;DHT22;9435;52.122;5.502;2023-01-19T11:46:58;4.90;99.90
18611;DHT22;9435;52.122;5.502;2023-01-19T11:49:35;4.80;99.90
18611;DHT22;9435;52.122;5.502;2023-01-19T11:52:08;4.70;99.90
18611;DHT22;9435;52.122;5.502;2023-01-19T11:54:44;4.70;99.90
18611;DHT22;9435;52.122;5.502;2023-01-19T11:57:15;4.70;99.90
18611;DHT22;9435;52.122;5.502;2023-01-19T11:59:43;4.60;99.90
18611;DHT22;9435;52.122;5.502;2023-01-19T12:02:19;4.70;99.90
18611;DHT22;9435;52.122;5.502;2023-01-19T12:04:54;4.70;99.90
18611;DHT22;9435;52.122;5.502;2023-01-19T12:07:27;4.70;99.90
18611;DHT22;9435;52.122;5.502;2023-01-19T12:12:49;4.60;99.90
18611;DHT22;9435;52.122;5.502;2023-01-19T12:15:22;4.50;99.90
18611;DHT22;9435;52.122;5.502;2023-01-19T12:17:54;4.50;99.90
18611;DHT22;9435;52.122;5.502;2023-01-19T12:20:26;4.50;99.90
18611;DHT22;9435;52.122;5.502;2023-01-19T12:23:01;4.50;99.90
18611;DHT22;9435;52.122;5.502;2023-01-19T12:25:43;4.40;99.90
18611;DHT22;9435;52.122;5.502;2023-01-19T12:28:14;4.40;99.90
18611;DHT22;9435;52.122;5.502;2023-01-19T12:30:43;4.30;99.90
18611;DHT22;9435;52.122;5.502;2023-01-19T12:33:30;4.30;99.90
18611;DHT22;9435;52.122;5.502;2023-01-19T12:36:02;4.30;99.90
18611;DHT22;9435;52.122;5.502;2023-01-19T12:38:43;4.20;99.90
18611;DHT22;9435;52.122;5.502;2023-01-19T12:41:28;4.20;99.90
18611;DHT22;9435;52.122;5.502;2023-01-19T12:44:20;4.20;99.90
18611;DHT22;9435;52.122;5.502;2023-01-19T12:46:49;4.10;99.90
18611;DHT22;9435;52.122;5.502;2023-01-19T12:49:26;4.10;99.90
18611;DHT22;9435;52.122;5.502;2023-01-19T12:52:23;4.00;99.90
18611;DHT22;9435;52.122;5.502;2023-01-19T12:54:58;4.00;99.90
18611;DHT22;9435;52.122;5.502;2023-01-19T12:57:28;4.00;99.90
18611;DHT22;9435;52.122;5.502;2023-01-19T12:59:58;3.90;99.90
18611;DHT22;9435;52.122;5.502;2023-01-19T13:02:50;4.00;99.90
18611;DHT22;9435;52.122;5.502;2023-01-19T13:11:16;4.10;99.90
18611;DHT22;9435;52.122;5.502;2023-01-19T13:19:52;4.50;99.90
18611;DHT22;9435;52.122;5.502;2023-01-19T13:25:31;4.60;99.90
18611;DHT22;9435;52.122;5.502;2023-01-19T13:28:00;4.70;99.90
18611;DHT22;9435;52.122;5.502;2023-01-19T13:30:28;4.70;99.90
18611;DHT22;9435;52.122;5.502;2023-01-19T13:33:01;4.70;99.90
18611;DHT22;9435;52.122;5.502;2023-01-19T13:35:29;4.80;99.90
18611;DHT22;9435;52.122;5.502;2023-01-19T13:37:58;4.80;99.90
18611;DHT22;9435;52.122;5.502;2023-01-19T13:40:34;4.90;99.90
18611;DHT22;9435;52.122;5.502;2023-01-19T13:43:03;5.00;99.90
18611;DHT22;9435;52.122;5.502;2023-01-19T13:45:34;5.00;99.90
18611;DHT22;9435;52.122;5.502;2023-01-19T13:48:06;5.00;99.90
18611;DHT22;9435;52.122;5.502;2023-01-19T13:50:35;5.10;99.90
18611;DHT22;9435;52.122;5.502;2023-01-19T13:53:15;5.10;99.90
18611;DHT22;9435;52.122;5.502;2023-01-19T13:55:45;5.10;99.90
18611;DHT22;9435;52.122;5.502;2023-01-19T13:58:19;5.00;99.90
18611;DHT22;9435;52.122;5.502;2023-01-19T14:00:46;4.90;99.90
18611;DHT22;9435;52.122;5.502;2023-01-19T14:03:16;4.90;99.90
18611;DHT22;9435;52.122;5.502;2023-01-19T14:05:49;4.80;99.90
18611;DHT22;9435;52.122;5.502;2023-01-19T14:08:18;4.70;99.90
18611;DHT22;9435;52.122;5.502;2023-01-19T14:10:59;4.60;99.90
18611;DHT22;9435;52.122;5.502;2023-01-19T14:13:28;4.60;99.90
18611;DHT22;9435;52.122;5.502;2023-01-19T14:15:57;4.50;99.90
18611;DHT22;9435;52.122;5.502;2023-01-19T14:18:27;4.40;99.90
18611;DHT22;9435;52.122;5.502;2023-01-19T14:20:57;4.40;99.90
18611;DHT22;9435;52.122;5.502;2023-01-19T14:23:45;4.30;99.90
18611;DHT22;9435;52.122;5.502;2023-01-19T14:26:39;4.20;99.90
18611;DHT22;9435;52.122;5.502;2023-01-19T14:29:16;4.20;99.90
18611;DHT22;9435;52.122;5.502;2023-01-19T14:31:45;4.10;99.90
18611;DHT22;9435;52.122;5.502;2023-01-19T14:34:30;4.10;99.90
18611;DHT22;9435;52.122;5.502;2023-01-19T14:36:57;4.20;99.90
18611;DHT22;9435;52.122;5.502;2023-01-19T14:39:26;4.10;99.90
18611;DHT22;9435;52.122;5.502;2023-01-19T14:41:57;4.10;99.90
18611;DHT22;9435;52.122;5.502;2023-01-19T14:44:28;4.10;99.90
18611;DHT22;9435;52.122;5.502;2023-01-19T14:46:56;4.00;99.90
18611;DHT22;9435;52.122;5.502;2023-01-19T14:49:30;4.00;99.90
18611;DHT22;9435;52.122;5.502;2023-01-19T14:51:58;4.00;99.90
18611;DHT22;9435;52.122;5.502;2023-01-19T14:54:34;4.00;99.90
18611;DHT22;9435;52.122;5.502;2023-01-19T14:57:03;4.00;99.90
18611;DHT22;9435;52.122;5.502;2023-01-19T14:59:31;4.10;99.90
18611;DHT22;9435;52.122;5.502;2023-01-19T15:01:58;4.00;99.90
18611;DHT22;9435;52.122;5.502;2023-01-19T15:04:25;4.10;99.90
18611;DHT22;9435;52.122;5.502;2023-01-19T15:06:54;4.10;99.90
18611;DHT22;9435;52.122;5.502;2023-01-19T15:09:21;4.00;99.90
18611;DHT22;9435;52.122;5.502;2023-01-19T15:11:49;4.00;99.90
18611;DHT22;9435;52.122;5.502;2023-01-19T15:14:19;4.00;99.90
18611;DHT22;9435;52.122;5.502;2023-01-19T15:16:47;4.00;99.90
18611;DHT22;9435;52.122;5.502;2023-01-19T15:19:15;3.80;99.90
18611;DHT22;9435;52.122;5.502;2023-01-19T15:21:43;3.80;99.90
18611;DHT22;9435;52.122;5.502;2023-01-19T15:24:12;3.80;99.90
18611;DHT22;9435;52.122;5.502;2023-01-19T15:26:40;3.70;99.90
18611;DHT22;9435;52.122;5.502;2023-01-19T15:29:17;3.70;99.90
18611;DHT22;9435;52.122;5.502;2023-01-19T15:31:47;3.60;99.90
18611;DHT22;9435;52.122;5.502;2023-01-19T15:34:14;3.60;99.90
18611;DHT22;9435;52.122;5.502;2023-01-19T15:36:41;3.50;99.90
18611;DHT22;9435;52.122;5.502;2023-01-19T15:39:08;3.50;99.90
18611;DHT22;9435;52.122;5.502;2023-01-19T15:41:37;3.40;99.90
18611;DHT22;9435;52.122;5.502;2023-01-19T15:44:04;3.40;99.90
18611;DHT22;9435;52.122;5.502;2023-01-19T15:46:33;3.30;99.90
18611;DHT22;9435;52.122;5.502;2023-01-19T15:49:02;3.30;99.90
18611;DHT22;9435;52.122;5.502;2023-01-19T15:51:30;3.20;99.90
18611;DHT22;9435;52.122;5.502;2023-01-19T15:53:57;3.20;99.90
18611;DHT22;9435;52.122;5.502;2023-01-19T15:56:27;3.10;99.90
18611;DHT22;9435;52.122;5.502;2023-01-19T15:58:57;3.00;99.90
18611;DHT22;9435;52.122;5.502;2023-01-19T16:01:26;2.90;99.90
18611;DHT22;9435;52.122;5.502;2023-01-19T16:03:57;2.90;99.90
18611;DHT22;9435;52.122;5.502;2023-01-19T16:06:28;2.80;99.90
18611;DHT22;9435;52.122;5.502;2023-01-19T16:08:55;2.70;99.90
18611;DHT22;9435;52.122;5.502;2023-01-19T16:11:26;2.70;99.90
18611;DHT22;9435;52.122;5.502;2023-01-19T16:13:53;2.60;99.90
18611;DHT22;9435;52.122;5.502;2023-01-19T16:16:22;2.50;99.90
18611;DHT22;9435;52.122;5.502;2023-01-19T16:18:50;2.50;99.90
18611;DHT22;9435;52.122;5.502;2023-01-19T16:21:17;2.50;99.90
18611;DHT22;9435;52.122;5.502;2023-01-19T16:23:46;2.40;99.90
18611;DHT22;9435;52.122;5.502;2023-01-19T16:26:24;2.30;99.90
18611;DHT22;9435;52.122;5.502;2023-01-19T16:28:54;2.20;99.90
18611;DHT22;9435;52.122;5.502;2023-01-19T16:31:21;2.10;99.90
18611;DHT22;9435;52.122;5.502;2023-01-19T16:33:48;2.00;99.90
18611;DHT22;9435;52.122;5.502;2023-01-19T16:36:23;2.00;99.90
18611;DHT22;9435;52.122;5.502;2023-01-19T16:38:52;1.90;99.90